sensor_id;sensor_type;location;lat;lon;timestamp;P1;durP1;ratioP1;P2;durP2;ratioP2
2618;SDS011;1319;52.346;13.096;2023-02-26T00:01:58;5.10;;;1.60;;
2618;SDS011;1319;52.346;13.096;2023-02-26T00:04:26;2.00;;;1.53;;
2618;SDS011;1319;52.346;13.096;2023-02-26T00:06:51;3.13;;;1.70;;
2618;SDS011;1319;52.346;13.096;2023-02-26T00:09:16;3.83;;;1.73;;
2618;SDS011;1319;52.346;13.096;2023-02-26T00:11:42;4.27;;;2.07;;
2618;SDS011;1319;52.346;13.096;2023-02-26T00:14:08;6.50;;;2.50;;
2618;SDS011;1319;52.346;13.096;2023-02-26T00:16:35;4.40;;;1.70;;
2618;SDS011;1319;52.346;13.096;2023-02-26T00:19:02;6.40;;;1.80;;
2618;SDS011;1319;52.346;13.096;2023-02-26T00:21:28;1.67;;;1.57;;
2618;SDS011;1319;52.346;13.096;2023-02-26T00:23:53;3.77;;;1.70;;
2618;SDS011;1319;52.346;13.096;2023-02-26T00:26:19;5.10;;;1.80;;
2618;SDS011;1319;52.346;13.096;2023-02-26T00:28:44;3.03;;;1.80;;
2618;SDS011;1319;52.346;13.096;2023-02-26T00:31:10;2.47;;;1.73;;
2618;SDS011;1319;52.346;13.096;2023-02-26T00:33:35;6.67;;;1.87;;
2618;SDS011;1319;52.346;13.096;2023-02-26T00:36:21;5.03;;;1.67;;
2618;SDS011;1319;52.346;13.096;2023-02-26T00:39:33;4.60;;;1.80;;
2618;SDS011;1319;52.346;13.096;2023-02-26T00:41:32;4.43;;;2.00;;
2618;SDS011;1319;52.346;13.096;2023-02-26T00:43:57;2.73;;;1.70;;
2618;SDS011;1319;52.346;13.096;2023-02-26T00:48:56;3.40;;;1.80;;
2618;SDS011;1319;52.346;13.096;2023-02-26T00:51:27;4.57;;;1.60;;
2618;SDS011;1319;52.346;13.096;2023-02-26T00:56:26;3.33;;;1.73;;
2618;SDS011;1319;52.346;13.096;2023-02-26T00:58:51;4.73;;;1.50;;
2618;SDS011;1319;52.346;13.096;2023-02-26T01:01:16;6.13;;;1.70;;
2618;SDS011;1319;52.346;13.096;2023-02-26T01:03:41;4.33;;;1.57;;
2618;SDS011;1319;52.346;13.096;2023-02-26T01:06:11;1.43;;;1.40;;
2618;SDS011;1319;52.346;13.096;2023-02-26T01:08:40;4.63;;;1.50;;
2618;SDS011;1319;52.346;13.096;2023-02-26T01:11:07;3.57;;;1.70;;
2618;SDS011;1319;52.346;13.096;2023-02-26T01:13:32;2.30;;;1.30;;
2618;SDS011;1319;52.346;13.096;2023-02-26T01:15:58;1.60;;;1.50;;
2618;SDS011;1319;52.346;13.096;2023-02-26T01:18:27;2.00;;;1.60;;
2618;SDS011;1319;52.346;13.096;2023-02-26T01:20:58;4.40;;;1.60;;
2618;SDS011;1319;52.346;13.096;2023-02-26T01:23:25;5.13;;;1.60;;
2618;SDS011;1319;52.346;13.096;2023-02-26T01:25:55;2.60;;;1.50;;
2618;SDS011;1319;52.346;13.096;2023-02-26T01:28:22;5.90;;;1.80;;
2618;SDS011;1319;52.346;13.096;2023-02-26T01:30:48;5.07;;;1.50;;
2618;SDS011;1319;52.346;13.096;2023-02-26T01:33:34;3.87;;;1.50;;
2618;SDS011;1319;52.346;13.096;2023-02-26T01:36:08;2.53;;;1.53;;
2618;SDS011;1319;52.346;13.096;2023-02-26T01:41:12;5.87;;;1.67;;
2618;SDS011;1319;52.346;13.096;2023-02-26T01:43:41;3.60;;;1.43;;
2618;SDS011;1319;52.346;13.096;2023-02-26T01:48:39;2.43;;;1.30;;
2618;SDS011;1319;52.346;13.096;2023-02-26T01:51:08;1.40;;;1.20;;
2618;SDS011;1319;52.346;13.096;2023-02-26T01:53:33;3.17;;;1.60;;
2618;SDS011;1319;52.346;13.096;2023-02-26T01:56:03;1.43;;;1.30;;
2618;SDS011;1319;52.346;13.096;2023-02-26T01:58:31;5.13;;;1.47;;
2618;SDS011;1319;52.346;13.096;2023-02-26T02:00:57;3.93;;;1.40;;
2618;SDS011;1319;52.346;13.096;2023-02-26T02:03:22;1.83;;;1.30;;
2618;SDS011;1319;52.346;13.096;2023-02-26T02:05:51;3.93;;;1.33;;
2618;SDS011;1319;52.346;13.096;2023-02-26T02:08:18;2.80;;;1.50;;
2618;SDS011;1319;52.346;13.096;2023-02-26T02:10:44;5.90;;;1.60;;
2618;SDS011;1319;52.346;13.096;2023-02-26T02:18:20;3.23;;;1.20;;
2618;SDS011;1319;52.346;13.096;2023-02-26T02:23:44;2.60;;;1.30;;
2618;SDS011;1319;52.346;13.096;2023-02-26T02:28:58;3.17;;;1.30;;
2618;SDS011;1319;52.346;13.096;2023-02-26T02:31:32;1.10;;;1.10;;
2618;SDS011;1319;52.346;13.096;2023-02-26T02:34:03;2.77;;;1.30;;
2618;SDS011;1319;52.346;13.096;2023-02-26T02:36:35;2.23;;;1.13;;
2618;SDS011;1319;52.346;13.096;2023-02-26T02:39:04;3.33;;;1.20;;
2618;SDS011;1319;52.346;13.096;2023-02-26T02:42:05;2.73;;;1.17;;
2618;SDS011;1319;52.346;13.096;2023-02-26T02:44:23;1.93;;;1.50;;
2618;SDS011;1319;52.346;13.096;2023-02-26T02:46:50;1.43;;;1.10;;
2618;SDS011;1319;52.346;13.096;2023-02-26T02:49:19;3.80;;;1.50;;
2618;SDS011;1319;52.346;13.096;2023-02-26T02:57:14;1.53;;;1.07;;
2618;SDS011;1319;52.346;13.096;2023-02-26T03:02:49;2.63;;;1.20;;
2618;SDS011;1319;52.346;13.096;2023-02-26T03:04:55;1.47;;;1.20;;
2618;SDS011;1319;52.346;13.096;2023-02-26T03:07:20;1.70;;;1.30;;
2618;SDS011;1319;52.346;13.096;2023-02-26T03:09:45;1.37;;;1.10;;
2618;SDS011;1319;52.346;13.096;2023-02-26T03:12:10;1.27;;;1.17;;
2618;SDS011;1319;52.346;13.096;2023-02-26T03:14:36;1.23;;;1.10;;
2618;SDS011;1319;52.346;13.096;2023-02-26T03:22:34;3.97;;;1.20;;
2618;SDS011;1319;52.346;13.096;2023-02-26T03:25:07;2.80;;;1.07;;
2618;SDS011;1319;52.346;13.096;2023-02-26T03:30:06;1.30;;;1.20;;
2618;SDS011;1319;52.346;13.096;2023-02-26T03:37:33;2.83;;;1.17;;
2618;SDS011;1319;52.346;13.096;2023-02-26T03:40:00;4.77;;;1.17;;
2618;SDS011;1319;52.346;13.096;2023-02-26T03:43:31;6.03;;;1.10;;
2618;SDS011;1319;52.346;13.096;2023-02-26T03:45:28;4.37;;;1.27;;
2618;SDS011;1319;52.346;13.096;2023-02-26T03:47:54;1.30;;;1.20;;
2618;SDS011;1319;52.346;13.096;2023-02-26T03:50:32;1.43;;;1.10;;
2618;SDS011;1319;52.346;13.096;2023-02-26T03:52:59;5.50;;;1.00;;
2618;SDS011;1319;52.346;13.096;2023-02-26T03:57:55;2.20;;;1.00;;
2618;SDS011;1319;52.346;13.096;2023-02-26T04:00:21;2.53;;;1.23;;
2618;SDS011;1319;52.346;13.096;2023-02-26T04:02:51;1.77;;;1.27;;
2618;SDS011;1319;52.346;13.096;2023-02-26T04:05:21;1.77;;;1.10;;
2618;SDS011;1319;52.346;13.096;2023-02-26T04:07:47;1.90;;;0.93;;
2618;SDS011;1319;52.346;13.096;2023-02-26T04:10:13;2.43;;;1.17;;
2618;SDS011;1319;52.346;13.096;2023-02-26T04:12:39;3.20;;;1.50;;
2618;SDS011;1319;52.346;13.096;2023-02-26T04:15:04;2.67;;;1.17;;
2618;SDS011;1319;52.346;13.096;2023-02-26T04:17:30;4.30;;;1.50;;
2618;SDS011;1319;52.346;13.096;2023-02-26T04:19:56;1.20;;;1.10;;
2618;SDS011;1319;52.346;13.096;2023-02-26T04:22:21;2.63;;;1.10;;
2618;SDS011;1319;52.346;13.096;2023-02-26T04:24:46;3.07;;;1.60;;
2618;SDS011;1319;52.346;13.096;2023-02-26T04:27:11;2.73;;;1.03;;
2618;SDS011;1319;52.346;13.096;2023-02-26T04:29:36;2.87;;;1.10;;
2618;SDS011;1319;52.346;13.096;2023-02-26T04:32:02;1.07;;;1.00;;
2618;SDS011;1319;52.346;13.096;2023-02-26T04:34:27;7.93;;;1.20;;
2618;SDS011;1319;52.346;13.096;2023-02-26T04:36:52;1.17;;;1.10;;
2618;SDS011;1319;52.346;13.096;2023-02-26T04:39:17;1.00;;;1.00;;
2618;SDS011;1319;52.346;13.096;2023-02-26T04:41:43;4.27;;;1.20;;
2618;SDS011;1319;52.346;13.096;2023-02-26T04:44:08;1.57;;;1.10;;
2618;SDS011;1319;52.346;13.096;2023-02-26T04:46:33;2.73;;;1.30;;
2618;SDS011;1319;52.346;13.096;2023-02-26T04:48:59;2.20;;;0.97;;
2618;SDS011;1319;52.346;13.096;2023-02-26T04:51:24;1.13;;;1.10;;
2618;SDS011;1319;52.346;13.096;2023-02-26T04:53:49;1.43;;;1.00;;
2618;SDS011;1319;52.346;13.096;2023-02-26T04:56:15;4.93;;;1.20;;
2618;SDS011;1319;52.346;13.096;2023-02-26T04:58:40;2.70;;;1.07;;
2618;SDS011;1319;52.346;13.096;2023-02-26T05:01:05;2.10;;;1.20;;
2618;SDS011;1319;52.346;13.096;2023-02-26T05:03:30;1.37;;;1.10;;
2618;SDS011;1319;52.346;13.096;2023-02-26T05:05:56;1.77;;;0.90;;
2618;SDS011;1319;52.346;13.096;2023-02-26T05:08:21;2.10;;;1.10;;
2618;SDS011;1319;52.346;13.096;2023-02-26T05:10:46;2.67;;;0.87;;
2618;SDS011;1319;52.346;13.096;2023-02-26T05:13:12;1.10;;;1.10;;
2618;SDS011;1319;52.346;13.096;2023-02-26T05:15:37;2.47;;;1.10;;
2618;SDS011;1319;52.346;13.096;2023-02-26T05:18:02;2.33;;;1.17;;
2618;SDS011;1319;52.346;13.096;2023-02-26T05:20:27;3.00;;;1.23;;
2618;SDS011;1319;52.346;13.096;2023-02-26T05:22:52;3.90;;;1.20;;
2618;SDS011;1319;52.346;13.096;2023-02-26T05:25:18;1.87;;;1.00;;
2618;SDS011;1319;52.346;13.096;2023-02-26T05:27:43;1.80;;;1.10;;
2618;SDS011;1319;52.346;13.096;2023-02-26T05:30:08;1.90;;;1.30;;
2618;SDS011;1319;52.346;13.096;2023-02-26T05:32:34;3.67;;;1.20;;
2618;SDS011;1319;52.346;13.096;2023-02-26T05:34:59;2.50;;;1.20;;
2618;SDS011;1319;52.346;13.096;2023-02-26T05:37:25;1.30;;;1.10;;
2618;SDS011;1319;52.346;13.096;2023-02-26T05:39:50;5.70;;;1.10;;
2618;SDS011;1319;52.346;13.096;2023-02-26T05:42:15;2.00;;;1.03;;
2618;SDS011;1319;52.346;13.096;2023-02-26T05:44:40;1.17;;;1.00;;
2618;SDS011;1319;52.346;13.096;2023-02-26T05:47:06;2.57;;;1.27;;
2618;SDS011;1319;52.346;13.096;2023-02-26T05:49:31;6.53;;;1.40;;
2618;SDS011;1319;52.346;13.096;2023-02-26T05:51:56;3.33;;;1.10;;
2618;SDS011;1319;52.346;13.096;2023-02-26T05:54:21;2.37;;;1.93;;
2618;SDS011;1319;52.346;13.096;2023-02-26T05:56:47;1.73;;;1.10;;
2618;SDS011;1319;52.346;13.096;2023-02-26T05:59:12;4.53;;;1.37;;
2618;SDS011;1319;52.346;13.096;2023-02-26T06:01:37;3.27;;;1.10;;
2618;SDS011;1319;52.346;13.096;2023-02-26T06:04:03;1.33;;;1.00;;
2618;SDS011;1319;52.346;13.096;2023-02-26T06:06:29;1.40;;;1.10;;
2618;SDS011;1319;52.346;13.096;2023-02-26T06:08:55;3.30;;;1.33;;
2618;SDS011;1319;52.346;13.096;2023-02-26T06:11:20;1.37;;;1.20;;
2618;SDS011;1319;52.346;13.096;2023-02-26T06:13:46;2.20;;;1.30;;
2618;SDS011;1319;52.346;13.096;2023-02-26T06:16:11;1.90;;;1.10;;
2618;SDS011;1319;52.346;13.096;2023-02-26T06:18:36;1.00;;;1.00;;
2618;SDS011;1319;52.346;13.096;2023-02-26T06:21:02;4.57;;;1.10;;
2618;SDS011;1319;52.346;13.096;2023-02-26T06:23:27;1.10;;;1.00;;
2618;SDS011;1319;52.346;13.096;2023-02-26T06:25:52;2.50;;;1.30;;
2618;SDS011;1319;52.346;13.096;2023-02-26T06:28:17;3.80;;;1.10;;
2618;SDS011;1319;52.346;13.096;2023-02-26T06:30:43;1.20;;;1.10;;
2618;SDS011;1319;52.346;13.096;2023-02-26T06:33:09;2.63;;;1.10;;
2618;SDS011;1319;52.346;13.096;2023-02-26T06:35:34;1.20;;;1.17;;
2618;SDS011;1319;52.346;13.096;2023-02-26T06:37:59;3.33;;;1.30;;
2618;SDS011;1319;52.346;13.096;2023-02-26T06:40:24;2.43;;;1.20;;
2618;SDS011;1319;52.346;13.096;2023-02-26T06:42:50;2.83;;;1.07;;
2618;SDS011;1319;52.346;13.096;2023-02-26T06:45:15;0.97;;;0.90;;
2618;SDS011;1319;52.346;13.096;2023-02-26T06:47:40;1.80;;;0.97;;
2618;SDS011;1319;52.346;13.096;2023-02-26T06:50:06;1.90;;;1.10;;
2618;SDS011;1319;52.346;13.096;2023-02-26T06:52:31;1.90;;;1.10;;
2618;SDS011;1319;52.346;13.096;2023-02-26T06:54:56;2.03;;;1.00;;
2618;SDS011;1319;52.346;13.096;2023-02-26T06:57:22;2.33;;;1.03;;
2618;SDS011;1319;52.346;13.096;2023-02-26T06:59:47;1.70;;;1.47;;
2618;SDS011;1319;52.346;13.096;2023-02-26T07:02:14;2.17;;;1.20;;
2618;SDS011;1319;52.346;13.096;2023-02-26T07:04:40;3.60;;;1.20;;
2618;SDS011;1319;52.346;13.096;2023-02-26T07:07:05;1.93;;;1.10;;
2618;SDS011;1319;52.346;13.096;2023-02-26T07:09:31;2.57;;;1.10;;
2618;SDS011;1319;52.346;13.096;2023-02-26T07:11:56;3.07;;;0.90;;
2618;SDS011;1319;52.346;13.096;2023-02-26T07:14:21;0.90;;;0.90;;
2618;SDS011;1319;52.346;13.096;2023-02-26T07:16:46;3.43;;;1.40;;
2618;SDS011;1319;52.346;13.096;2023-02-26T07:19:11;5.90;;;1.27;;
2618;SDS011;1319;52.346;13.096;2023-02-26T07:21:37;1.80;;;1.20;;
2618;SDS011;1319;52.346;13.096;2023-02-26T07:24:02;4.03;;;1.10;;
2618;SDS011;1319;52.346;13.096;2023-02-26T07:26:27;3.27;;;1.20;;
2618;SDS011;1319;52.346;13.096;2023-02-26T07:28:52;2.40;;;1.03;;
2618;SDS011;1319;52.346;13.096;2023-02-26T07:31:18;3.07;;;1.20;;
2618;SDS011;1319;52.346;13.096;2023-02-26T07:33:43;1.90;;;1.20;;
2618;SDS011;1319;52.346;13.096;2023-02-26T07:36:08;3.10;;;1.20;;
2618;SDS011;1319;52.346;13.096;2023-02-26T07:38:33;1.63;;;1.20;;
2618;SDS011;1319;52.346;13.096;2023-02-26T07:40:58;1.50;;;1.13;;
2618;SDS011;1319;52.346;13.096;2023-02-26T07:43:24;3.10;;;1.20;;
2618;SDS011;1319;52.346;13.096;2023-02-26T07:45:49;1.60;;;1.20;;
2618;SDS011;1319;52.346;13.096;2023-02-26T07:48:15;2.50;;;1.00;;
2618;SDS011;1319;52.346;13.096;2023-02-26T07:50:40;2.40;;;1.00;;
2618;SDS011;1319;52.346;13.096;2023-02-26T07:53:05;1.40;;;1.30;;
2618;SDS011;1319;52.346;13.096;2023-02-26T07:55:31;1.80;;;1.10;;
2618;SDS011;1319;52.346;13.096;2023-02-26T07:57:56;1.20;;;1.00;;
2618;SDS011;1319;52.346;13.096;2023-02-26T08:00:21;2.03;;;1.00;;
2618;SDS011;1319;52.346;13.096;2023-02-26T08:02:46;1.87;;;1.00;;
2618;SDS011;1319;52.346;13.096;2023-02-26T08:05:11;3.23;;;1.10;;
2618;SDS011;1319;52.346;13.096;2023-02-26T08:07:37;2.53;;;1.10;;
2618;SDS011;1319;52.346;13.096;2023-02-26T08:10:02;1.37;;;1.00;;
2618;SDS011;1319;52.346;13.096;2023-02-26T08:12:28;2.47;;;1.40;;
2618;SDS011;1319;52.346;13.096;2023-02-26T08:14:53;1.10;;;1.00;;
2618;SDS011;1319;52.346;13.096;2023-02-26T08:17:19;3.27;;;1.30;;
2618;SDS011;1319;52.346;13.096;2023-02-26T08:19:44;1.37;;;1.20;;
2618;SDS011;1319;52.346;13.096;2023-02-26T08:22:09;2.00;;;1.20;;
2618;SDS011;1319;52.346;13.096;2023-02-26T08:24:34;1.10;;;1.00;;
2618;SDS011;1319;52.346;13.096;2023-02-26T08:26:59;5.37;;;1.07;;
2618;SDS011;1319;52.346;13.096;2023-02-26T08:29:25;3.80;;;1.50;;
2618;SDS011;1319;52.346;13.096;2023-02-26T08:31:50;3.50;;;1.30;;
2618;SDS011;1319;52.346;13.096;2023-02-26T08:34:15;1.73;;;1.20;;
2618;SDS011;1319;52.346;13.096;2023-02-26T08:36:41;1.40;;;0.93;;
2618;SDS011;1319;52.346;13.096;2023-02-26T08:39:06;1.33;;;1.20;;
2618;SDS011;1319;52.346;13.096;2023-02-26T08:41:32;2.67;;;1.07;;
2618;SDS011;1319;52.346;13.096;2023-02-26T08:44:01;1.13;;;1.00;;
2618;SDS011;1319;52.346;13.096;2023-02-26T08:46:27;1.13;;;1.10;;
2618;SDS011;1319;52.346;13.096;2023-02-26T08:48:52;1.60;;;1.10;;
2618;SDS011;1319;52.346;13.096;2023-02-26T08:51:19;1.97;;;1.10;;
2618;SDS011;1319;52.346;13.096;2023-02-26T08:53:44;3.30;;;1.00;;
2618;SDS011;1319;52.346;13.096;2023-02-26T08:56:11;1.20;;;1.10;;
2618;SDS011;1319;52.346;13.096;2023-02-26T08:58:36;4.47;;;1.10;;
2618;SDS011;1319;52.346;13.096;2023-02-26T09:01:01;2.37;;;1.50;;
2618;SDS011;1319;52.346;13.096;2023-02-26T09:03:27;5.00;;;1.73;;
2618;SDS011;1319;52.346;13.096;2023-02-26T09:05:52;2.50;;;1.50;;
2618;SDS011;1319;52.346;13.096;2023-02-26T09:08:17;3.40;;;1.40;;
2618;SDS011;1319;52.346;13.096;2023-02-26T09:10:44;1.83;;;1.60;;
2618;SDS011;1319;52.346;13.096;2023-02-26T09:13:10;1.93;;;1.40;;
2618;SDS011;1319;52.346;13.096;2023-02-26T09:15:35;2.87;;;1.30;;
2618;SDS011;1319;52.346;13.096;2023-02-26T09:18:00;2.30;;;1.47;;
2618;SDS011;1319;52.346;13.096;2023-02-26T09:20:25;2.37;;;1.50;;
2618;SDS011;1319;52.346;13.096;2023-02-26T09:22:51;2.50;;;1.17;;
2618;SDS011;1319;52.346;13.096;2023-02-26T09:25:16;2.80;;;1.50;;
2618;SDS011;1319;52.346;13.096;2023-02-26T09:27:42;1.30;;;1.20;;
2618;SDS011;1319;52.346;13.096;2023-02-26T09:30:08;2.83;;;1.60;;
2618;SDS011;1319;52.346;13.096;2023-02-26T09:32:34;2.33;;;1.37;;
2618;SDS011;1319;52.346;13.096;2023-02-26T09:34:59;3.70;;;1.60;;
2618;SDS011;1319;52.346;13.096;2023-02-26T09:37:24;1.77;;;1.57;;
2618;SDS011;1319;52.346;13.096;2023-02-26T09:39:49;1.70;;;1.50;;
2618;SDS011;1319;52.346;13.096;2023-02-26T09:42:25;2.13;;;1.20;;
2618;SDS011;1319;52.346;13.096;2023-02-26T09:44:52;1.60;;;1.50;;
2618;SDS011;1319;52.346;13.096;2023-02-26T09:47:23;1.80;;;1.40;;
2618;SDS011;1319;52.346;13.096;2023-02-26T09:50:10;3.20;;;1.50;;
2618;SDS011;1319;52.346;13.096;2023-02-26T09:52:45;1.57;;;1.47;;
2618;SDS011;1319;52.346;13.096;2023-02-26T09:55:21;2.40;;;1.33;;
2618;SDS011;1319;52.346;13.096;2023-02-26T09:57:48;1.33;;;1.23;;
2618;SDS011;1319;52.346;13.096;2023-02-26T10:00:20;2.97;;;1.47;;
2618;SDS011;1319;52.346;13.096;2023-02-26T10:07:44;1.80;;;1.40;;
2618;SDS011;1319;52.346;13.096;2023-02-26T10:12:38;2.00;;;1.30;;
2618;SDS011;1319;52.346;13.096;2023-02-26T10:23:22;2.03;;;1.00;;
2618;SDS011;1319;52.346;13.096;2023-02-26T10:25:52;1.47;;;1.10;;
2618;SDS011;1319;52.346;13.096;2023-02-26T10:28:36;1.23;;;1.00;;
2618;SDS011;1319;52.346;13.096;2023-02-26T10:31:10;0.97;;;0.97;;
2618;SDS011;1319;52.346;13.096;2023-02-26T10:41:50;1.23;;;1.07;;
2618;SDS011;1319;52.346;13.096;2023-02-26T10:44:21;3.60;;;1.17;;
2618;SDS011;1319;52.346;13.096;2023-02-26T10:51:48;2.37;;;1.10;;
2618;SDS011;1319;52.346;13.096;2023-02-26T10:56:44;1.00;;;1.00;;
2618;SDS011;1319;52.346;13.096;2023-02-26T10:59:10;3.80;;;1.00;;
2618;SDS011;1319;52.346;13.096;2023-02-26T11:01:35;3.43;;;1.20;;
2618;SDS011;1319;52.346;13.096;2023-02-26T11:06:27;1.13;;;0.90;;
2618;SDS011;1319;52.346;13.096;2023-02-26T11:08:54;3.60;;;1.00;;
2618;SDS011;1319;52.346;13.096;2023-02-26T11:14:24;1.47;;;1.00;;
2618;SDS011;1319;52.346;13.096;2023-02-26T11:16:52;1.00;;;0.90;;
2618;SDS011;1319;52.346;13.096;2023-02-26T11:19:19;2.30;;;1.10;;
2618;SDS011;1319;52.346;13.096;2023-02-26T11:21:47;1.43;;;0.70;;
2618;SDS011;1319;52.346;13.096;2023-02-26T11:24:22;1.10;;;1.00;;
2618;SDS011;1319;52.346;13.096;2023-02-26T11:26:49;1.30;;;1.10;;
2618;SDS011;1319;52.346;13.096;2023-02-26T11:29:17;1.70;;;1.00;;
2618;SDS011;1319;52.346;13.096;2023-02-26T11:31:46;0.80;;;0.80;;
2618;SDS011;1319;52.346;13.096;2023-02-26T11:34:11;1.60;;;1.00;;
2618;SDS011;1319;52.346;13.096;2023-02-26T11:36:38;1.23;;;0.90;;
2618;SDS011;1319;52.346;13.096;2023-02-26T11:39:23;1.63;;;0.90;;
2618;SDS011;1319;52.346;13.096;2023-02-26T11:41:49;1.10;;;1.00;;
2618;SDS011;1319;52.346;13.096;2023-02-26T11:44:19;1.27;;;0.90;;
2618;SDS011;1319;52.346;13.096;2023-02-26T11:46:54;2.60;;;1.10;;
2618;SDS011;1319;52.346;13.096;2023-02-26T11:49:21;2.90;;;1.60;;
2618;SDS011;1319;52.346;13.096;2023-02-26T11:51:48;1.87;;;1.27;;
2618;SDS011;1319;52.346;13.096;2023-02-26T11:54:27;1.47;;;1.23;;
2618;SDS011;1319;52.346;13.096;2023-02-26T11:56:52;1.20;;;1.07;;
2618;SDS011;1319;52.346;13.096;2023-02-26T11:59:24;1.23;;;1.10;;
2618;SDS011;1319;52.346;13.096;2023-02-26T12:01:50;1.27;;;1.10;;
2618;SDS011;1319;52.346;13.096;2023-02-26T12:04:22;1.73;;;0.90;;
2618;SDS011;1319;52.346;13.096;2023-02-26T12:06:49;1.70;;;1.23;;
2618;SDS011;1319;52.346;13.096;2023-02-26T12:09:14;1.10;;;1.10;;
2618;SDS011;1319;52.346;13.096;2023-02-26T12:11:46;2.23;;;1.13;;
2618;SDS011;1319;52.346;13.096;2023-02-26T12:19:34;5.27;;;1.47;;
2618;SDS011;1319;52.346;13.096;2023-02-26T12:22:16;2.93;;;0.97;;
2618;SDS011;1319;52.346;13.096;2023-02-26T12:46:01;2.27;;;1.57;;
2618;SDS011;1319;52.346;13.096;2023-02-26T12:56:30;1.30;;;1.20;;
2618;SDS011;1319;52.346;13.096;2023-02-26T12:59:21;1.00;;;1.00;;
2618;SDS011;1319;52.346;13.096;2023-02-26T13:09:30;1.40;;;0.90;;
2618;SDS011;1319;52.346;13.096;2023-02-26T13:12:06;1.63;;;1.10;;
2618;SDS011;1319;52.346;13.096;2023-02-26T13:17:05;4.07;;;1.20;;
2618;SDS011;1319;52.346;13.096;2023-02-26T13:19:36;1.50;;;1.40;;
2618;SDS011;1319;52.346;13.096;2023-02-26T13:22:49;1.90;;;1.10;;
2618;SDS011;1319;52.346;13.096;2023-02-26T13:24:51;1.77;;;1.30;;
2618;SDS011;1319;52.346;13.096;2023-02-26T13:27:18;2.00;;;1.07;;
2618;SDS011;1319;52.346;13.096;2023-02-26T13:29:46;1.20;;;1.00;;
2618;SDS011;1319;52.346;13.096;2023-02-26T13:32:22;1.20;;;0.90;;
2618;SDS011;1319;52.346;13.096;2023-02-26T13:37:37;1.97;;;0.83;;
2618;SDS011;1319;52.346;13.096;2023-02-26T13:45:03;1.13;;;1.00;;
2618;SDS011;1319;52.346;13.096;2023-02-26T13:49:58;1.90;;;1.10;;
2618;SDS011;1319;52.346;13.096;2023-02-26T13:52:28;1.87;;;1.00;;
2618;SDS011;1319;52.346;13.096;2023-02-26T13:54:54;1.50;;;1.40;;
2618;SDS011;1319;52.346;13.096;2023-02-26T14:00:30;2.30;;;1.47;;
2618;SDS011;1319;52.346;13.096;2023-02-26T14:02:56;1.03;;;1.00;;
2618;SDS011;1319;52.346;13.096;2023-02-26T14:05:39;1.00;;;0.90;;
2618;SDS011;1319;52.346;13.096;2023-02-26T14:13:22;1.10;;;1.00;;
2618;SDS011;1319;52.346;13.096;2023-02-26T14:23:49;1.67;;;1.00;;
2618;SDS011;1319;52.346;13.096;2023-02-26T14:26:17;1.33;;;1.10;;
2618;SDS011;1319;52.346;13.096;2023-02-26T14:28:57;2.10;;;1.30;;
2618;SDS011;1319;52.346;13.096;2023-02-26T14:34:30;1.00;;;1.00;;
2618;SDS011;1319;52.346;13.096;2023-02-26T14:36:59;1.00;;;1.00;;
2618;SDS011;1319;52.346;13.096;2023-02-26T14:39:36;3.13;;;0.93;;
2618;SDS011;1319;52.346;13.096;2023-02-26T14:42:09;1.03;;;0.90;;
2618;SDS011;1319;52.346;13.096;2023-02-26T14:44:42;1.10;;;1.10;;
2618;SDS011;1319;52.346;13.096;2023-02-26T14:47:09;1.73;;;1.13;;
2618;SDS011;1319;52.346;13.096;2023-02-26T14:49:35;0.90;;;0.90;;
2618;SDS011;1319;52.346;13.096;2023-02-26T14:52:05;0.90;;;0.90;;
2618;SDS011;1319;52.346;13.096;2023-02-26T14:54:38;0.87;;;0.87;;
2618;SDS011;1319;52.346;13.096;2023-02-26T14:57:17;1.50;;;0.80;;
2618;SDS011;1319;52.346;13.096;2023-02-26T14:59:58;1.30;;;1.07;;
2618;SDS011;1319;52.346;13.096;2023-02-26T15:02:37;3.63;;;1.07;;
2618;SDS011;1319;52.346;13.096;2023-02-26T15:12:49;1.23;;;1.10;;
2618;SDS011;1319;52.346;13.096;2023-02-26T15:18:07;1.20;;;1.20;;
2618;SDS011;1319;52.346;13.096;2023-02-26T15:20:41;2.50;;;0.90;;
2618;SDS011;1319;52.346;13.096;2023-02-26T15:25:39;2.53;;;0.90;;
2618;SDS011;1319;52.346;13.096;2023-02-26T15:28:08;1.77;;;0.93;;
2618;SDS011;1319;52.346;13.096;2023-02-26T15:30:34;1.07;;;0.97;;
2618;SDS011;1319;52.346;13.096;2023-02-26T15:33:02;1.10;;;1.00;;
2618;SDS011;1319;52.346;13.096;2023-02-26T15:35:28;1.00;;;1.00;;
2618;SDS011;1319;52.346;13.096;2023-02-26T15:37:55;1.70;;;1.20;;
2618;SDS011;1319;52.346;13.096;2023-02-26T15:40:22;1.73;;;1.27;;
2618;SDS011;1319;52.346;13.096;2023-02-26T15:42:48;1.17;;;1.10;;
2618;SDS011;1319;52.346;13.096;2023-02-26T15:45:18;1.27;;;1.17;;
2618;SDS011;1319;52.346;13.096;2023-02-26T15:47:52;1.57;;;1.23;;
2618;SDS011;1319;52.346;13.096;2023-02-26T15:50:18;1.00;;;1.00;;
2618;SDS011;1319;52.346;13.096;2023-02-26T15:52:44;1.23;;;1.10;;
2618;SDS011;1319;52.346;13.096;2023-02-26T15:55:13;1.40;;;1.13;;
2618;SDS011;1319;52.346;13.096;2023-02-26T15:57:39;1.77;;;1.00;;
2618;SDS011;1319;52.346;13.096;2023-02-26T16:00:07;1.33;;;1.10;;
2618;SDS011;1319;52.346;13.096;2023-02-26T16:02:34;0.90;;;0.90;;
2618;SDS011;1319;52.346;13.096;2023-02-26T16:05:01;1.50;;;0.80;;
2618;SDS011;1319;52.346;13.096;2023-02-26T16:07:27;1.30;;;1.10;;
2618;SDS011;1319;52.346;13.096;2023-02-26T16:09:53;1.10;;;1.00;;
2618;SDS011;1319;52.346;13.096;2023-02-26T16:14:51;1.53;;;1.00;;
2618;SDS011;1319;52.346;13.096;2023-02-26T16:17:27;1.23;;;1.20;;
2618;SDS011;1319;52.346;13.096;2023-02-26T16:19:54;1.00;;;1.00;;
2618;SDS011;1319;52.346;13.096;2023-02-26T16:22:23;1.20;;;1.10;;
2618;SDS011;1319;52.346;13.096;2023-02-26T16:24:56;1.43;;;0.77;;
2618;SDS011;1319;52.346;13.096;2023-02-26T16:27:23;2.00;;;1.00;;
2618;SDS011;1319;52.346;13.096;2023-02-26T16:29:50;0.90;;;0.90;;
2618;SDS011;1319;52.346;13.096;2023-02-26T16:32:16;1.30;;;1.00;;
2618;SDS011;1319;52.346;13.096;2023-02-26T16:34:45;2.97;;;1.10;;
2618;SDS011;1319;52.346;13.096;2023-02-26T16:39:44;3.50;;;1.00;;
2618;SDS011;1319;52.346;13.096;2023-02-26T16:42:19;0.93;;;0.93;;
2618;SDS011;1319;52.346;13.096;2023-02-26T16:44:49;2.20;;;1.23;;
2618;SDS011;1319;52.346;13.096;2023-02-26T16:47:14;1.00;;;1.00;;
2618;SDS011;1319;52.346;13.096;2023-02-26T16:49:40;2.00;;;1.10;;
2618;SDS011;1319;52.346;13.096;2023-02-26T16:52:08;3.33;;;1.70;;
2618;SDS011;1319;52.346;13.096;2023-02-26T16:54:37;1.77;;;1.40;;
2618;SDS011;1319;52.346;13.096;2023-02-26T16:57:26;1.40;;;1.30;;
2618;SDS011;1319;52.346;13.096;2023-02-26T16:59:51;1.53;;;1.00;;
2618;SDS011;1319;52.346;13.096;2023-02-26T17:02:21;1.13;;;1.13;;
2618;SDS011;1319;52.346;13.096;2023-02-26T17:04:49;2.47;;;1.33;;
2618;SDS011;1319;52.346;13.096;2023-02-26T17:09:44;4.63;;;1.70;;
2618;SDS011;1319;52.346;13.096;2023-02-26T17:12:15;2.47;;;1.60;;
2618;SDS011;1319;52.346;13.096;2023-02-26T17:14:42;2.50;;;1.80;;
2618;SDS011;1319;52.346;13.096;2023-02-26T17:17:08;2.10;;;1.90;;
2618;SDS011;1319;52.346;13.096;2023-02-26T17:19:34;2.77;;;1.80;;
2618;SDS011;1319;52.346;13.096;2023-02-26T17:21:59;1.70;;;1.60;;
2618;SDS011;1319;52.346;13.096;2023-02-26T17:24:32;1.73;;;1.40;;
2618;SDS011;1319;52.346;13.096;2023-02-26T17:26:58;1.80;;;1.50;;
2618;SDS011;1319;52.346;13.096;2023-02-26T17:29:29;1.20;;;1.20;;
2618;SDS011;1319;52.346;13.096;2023-02-26T17:31:55;1.43;;;1.40;;
2618;SDS011;1319;52.346;13.096;2023-02-26T17:34:21;1.60;;;1.50;;
2618;SDS011;1319;52.346;13.096;2023-02-26T17:36:47;2.20;;;1.70;;
2618;SDS011;1319;52.346;13.096;2023-02-26T17:39:12;1.93;;;1.80;;
2618;SDS011;1319;52.346;13.096;2023-02-26T17:41:38;1.90;;;1.80;;
2618;SDS011;1319;52.346;13.096;2023-02-26T17:44:04;1.73;;;1.57;;
2618;SDS011;1319;52.346;13.096;2023-02-26T17:46:29;2.07;;;1.20;;
2618;SDS011;1319;52.346;13.096;2023-02-26T17:48:54;1.07;;;1.07;;
2618;SDS011;1319;52.346;13.096;2023-02-26T17:51:19;5.40;;;1.40;;
2618;SDS011;1319;52.346;13.096;2023-02-26T17:53:44;4.43;;;1.00;;
2618;SDS011;1319;52.346;13.096;2023-02-26T17:56:11;1.83;;;1.10;;
2618;SDS011;1319;52.346;13.096;2023-02-26T17:58:38;2.03;;;1.03;;
2618;SDS011;1319;52.346;13.096;2023-02-26T18:01:04;1.30;;;1.20;;